Time;durP1;ratioP1;P1;durP2;ratioP2;P2;SDS_P1;SDS_P2;PMS_P1;PMS_P2;Temp;Humidity;BMP_temperature;BMP_pressure;BME280_temperature;BME280_humidity;BME280_pressure;Samples;Min_cycle;Max_cycle;Signal;HPM_P1;HPM_P2
2022/01/06 00:01:35;;;;;;;6.30;1.90;;;1.30;99.90;;;;;;4997137;28;20720;-69
2022/01/06 00:04:01;;;;;;;5.23;1.90;;;1.30;99.90;;;;;;4994308;28;20267;-69
2022/01/06 00:06:27;;;;;;;5.50;1.20;;;1.30;99.90;;;;;;4995668;28;20199;-69
2022/01/06 00:08:55;;;;;;;6.73;2.17;;;1.30;99.90;;;;;;4991097;28;20559;-69
2022/01/06 00:11:20;;;;;;;2.50;1.20;;;1.30;99.90;;;;;;4986849;28;20832;-69
2022/01/06 00:14:11;;;;;;;8.93;2.03;;;1.30;99.90;;;;;;4989124;28;20469;-69
2022/01/06 00:23:19;;;;;;;7.50;2.60;;;1.30;99.90;;;;;;4995657;28;20444;-69
2022/01/06 00:24:36;;;;;;;4.23;1.67;;;1.20;99.90;;;;;;4991075;28;20518;-69
2022/01/06 00:27:02;;;;;;;7.80;1.80;;;1.20;99.90;;;;;;4993878;28;20504;-69
2022/01/06 00:29:27;;;;;;;7.83;1.70;;;1.20;99.90;;;;;;4991325;28;20184;-69
2022/01/06 00:31:53;;;;;;;8.53;2.27;;;1.20;99.90;;;;;;4996926;28;20193;-69
2022/01/06 00:34:19;;;;;;;3.10;1.83;;;1.20;99.90;;;;;;4995191;28;20208;-69
2022/01/06 00:36:44;;;;;;;3.77;1.50;;;1.20;99.90;;;;;;4998424;28;20222;-69
2022/01/06 00:39:11;;;;;;;4.33;1.53;;;1.20;99.90;;;;;;4991827;28;20649;-69
2022/01/06 00:41:37;;;;;;;3.40;1.40;;;1.20;99.90;;;;;;4985187;28;20188;-69
2022/01/06 00:44:05;;;;;;;13.63;1.87;;;1.20;99.90;;;;;;4996368;28;20554;-69
2022/01/06 00:46:31;;;;;;;5.97;1.37;;;1.30;99.90;;;;;;4982774;28;20428;-69
2022/01/06 00:48:57;;;;;;;6.30;1.90;;;1.30;99.90;;;;;;4988988;28;20457;-69
2022/01/06 00:51:23;;;;;;;3.53;1.20;;;1.20;99.90;;;;;;4986021;28;20271;-69
2022/01/06 00:53:49;;;;;;;3.67;1.20;;;1.30;99.90;;;;;;4995400;28;20211;-69
2022/01/06 00:56:15;;;;;;;8.80;2.07;;;1.30;99.90;;;;;;4990805;28;20436;-69
2022/01/06 00:58:41;;;;;;;5.30;1.63;;;1.30;99.90;;;;;;4986005;28;20439;-69
2022/01/06 01:01:06;;;;;;;5.43;1.70;;;1.30;99.90;;;;;;4992807;28;20337;-69
2022/01/06 01:03:32;;;;;;;2.80;1.20;;;1.40;99.90;;;;;;4989774;28;20184;-69
2022/01/06 01:05:58;;;;;;;10.87;1.97;;;1.30;99.90;;;;;;4993470;28;20190;-69
2022/01/06 01:08:25;;;;;;;5.87;1.93;;;1.30;99.90;;;;;;4974775;28;20184;-69
2022/01/06 01:10:53;;;;;;;3.10;1.10;;;1.40;99.90;;;;;;4982278;28;20425;-69
2022/01/06 01:13:27;;;;;;;2.00;1.23;;;1.40;99.90;;;;;;4991906;28;20438;-69
2022/01/06 01:15:58;;;;;;;4.10;1.60;;;1.40;99.90;;;;;;4996330;28;20409;-69
2022/01/06 01:18:23;;;;;;;2.30;1.17;;;1.40;99.90;;;;;;4995154;28;20427;-69
2022/01/06 01:20:51;;;;;;;5.53;1.23;;;1.40;99.90;;;;;;5001304;28;20442;-69
2022/01/06 01:23:20;;;;;;;2.60;1.33;;;1.40;99.90;;;;;;4982869;28;20189;-69
2022/01/06 01:25:47;;;;;;;4.50;1.57;;;1.40;99.90;;;;;;4995208;28;20427;-69
2022/01/06 01:28:14;;;;;;;7.43;1.73;;;1.30;99.90;;;;;;4993883;28;21032;-69
2022/01/06 01:30:53;;;;;;;5.03;1.50;;;1.40;99.90;;;;;;4992469;28;20437;-69
2022/01/06 01:33:20;;;;;;;2.37;0.70;;;1.40;99.90;;;;;;4997639;28;20969;-69
2022/01/06 01:35:46;;;;;;;1.50;1.00;;;1.40;99.90;;;;;;4995813;28;20435;-69
2022/01/06 01:38:11;;;;;;;3.57;1.30;;;1.40;99.90;;;;;;4989102;28;20431;-69
2022/01/06 01:40:37;;;;;;;2.23;0.93;;;1.40;99.90;;;;;;4995804;28;20467;-69
2022/01/06 01:43:04;;;;;;;6.93;2.00;;;1.40;99.90;;;;;;4989493;28;20271;-69
2022/01/06 01:45:32;;;;;;;4.20;1.23;;;1.30;99.90;;;;;;4990064;28;21101;-69
2022/01/06 01:48:03;;;;;;;5.90;1.50;;;1.40;99.90;;;;;;4981022;28;20554;-69
2022/01/06 01:50:29;;;;;;;3.63;1.07;;;1.30;99.90;;;;;;4993555;28;20465;-69
2022/01/06 01:52:57;;;;;;;4.23;1.30;;;1.40;99.90;;;;;;4989158;28;20962;-69
2022/01/06 01:55:28;;;;;;;4.33;2.30;;;1.40;99.90;;;;;;4996335;28;20214;-69
2022/01/06 01:57:54;;;;;;;4.60;1.70;;;1.50;99.90;;;;;;4994923;28;20828;-70
2022/01/06 02:00:22;;;;;;;4.00;1.80;;;1.40;99.90;;;;;;4994173;28;20445;-69
2022/01/06 02:02:48;;;;;;;4.70;0.90;;;1.40;99.90;;;;;;4985492;28;20477;-69
2022/01/06 02:05:14;;;;;;;3.30;1.23;;;1.40;99.90;;;;;;4984260;28;20515;-69
2022/01/06 02:07:41;;;;;;;4.90;1.23;;;1.40;99.90;;;;;;4983550;28;20266;-69
2022/01/06 02:10:09;;;;;;;8.83;1.63;;;1.40;99.90;;;;;;4987797;28;20430;-69
2022/01/06 02:12:37;;;;;;;2.27;0.87;;;1.40;99.90;;;;;;4982742;28;20442;-69
2022/01/06 02:15:07;;;;;;;8.83;1.50;;;1.40;99.90;;;;;;4987065;28;21130;-69
2022/01/06 02:17:33;;;;;;;2.00;1.30;;;1.50;99.90;;;;;;4980293;28;20537;-69
2022/01/06 02:20:01;;;;;;;2.40;1.23;;;1.50;99.90;;;;;;4995903;28;21151;-69
2022/01/06 02:22:27;;;;;;;4.10;1.23;;;1.40;99.90;;;;;;4992836;28;20513;-69
2022/01/06 02:24:54;;;;;;;3.33;1.17;;;1.40;99.90;;;;;;5003323;28;20423;-69
2022/01/06 02:27:20;;;;;;;4.07;1.47;;;1.40;99.90;;;;;;4988618;28;20529;-69
2022/01/06 02:29:51;;;;;;;2.63;1.13;;;1.50;99.90;;;;;;4993600;28;20483;-69
2022/01/06 02:32:19;;;;;;;5.73;1.63;;;1.40;99.90;;;;;;4980807;28;20479;-69
2022/01/06 02:34:46;;;;;;;10.20;1.20;;;1.40;99.90;;;;;;4978913;28;20792;-69
2022/01/06 02:37:14;;;;;;;2.90;1.40;;;1.40;99.90;;;;;;4993219;28;20852;-69
2022/01/06 02:39:41;;;;;;;2.80;1.50;;;1.40;99.90;;;;;;4995508;28;20510;-69
2022/01/06 02:42:07;;;;;;;2.43;0.97;;;1.40;99.90;;;;;;4976731;28;20426;-71
2022/01/06 02:44:36;;;;;;;5.73;2.00;;;1.40;99.90;;;;;;4978242;28;20427;-69
2022/01/06 02:47:02;;;;;;;3.60;1.33;;;1.40;99.90;;;;;;4989029;28;21026;-70
2022/01/06 02:49:28;;;;;;;2.70;1.53;;;1.40;99.90;;;;;;4990750;28;21271;-69
2022/01/06 02:51:53;;;;;;;5.33;1.30;;;1.40;99.90;;;;;;4980103;28;20568;-69
2022/01/06 02:54:20;;;;;;;3.63;1.00;;;1.40;99.90;;;;;;4991480;28;20212;-69
2022/01/06 02:56:48;;;;;;;2.07;1.50;;;1.40;99.90;;;;;;4977965;28;20667;-69
2022/01/06 02:59:14;;;;;;;4.80;1.17;;;1.40;99.90;;;;;;4983431;28;20501;-69
2022/01/06 03:01:42;;;;;;;6.67;1.30;;;1.40;99.90;;;;;;4981647;28;20551;-69
2022/01/06 03:04:08;;;;;;;3.10;1.50;;;1.40;99.90;;;;;;4990727;28;20489;-69
2022/01/06 03:06:34;;;;;;;3.30;1.50;;;1.30;99.90;;;;;;4989365;28;20459;-69
2022/01/06 03:09:00;;;;;;;4.13;1.30;;;1.30;99.90;;;;;;4989951;28;20486;-69
2022/01/06 03:11:26;;;;;;;3.13;1.47;;;1.30;99.90;;;;;;4988636;28;20447;-69
2022/01/06 03:13:54;;;;;;;7.30;1.60;;;1.30;99.90;;;;;;4993819;28;20223;-69
2022/01/06 03:16:20;;;;;;;1.73;1.10;;;1.30;99.90;;;;;;4982005;28;20538;-69
2022/01/06 03:18:47;;;;;;;3.63;1.80;;;1.30;99.90;;;;;;4988358;28;20942;-69
2022/01/06 03:21:13;;;;;;;3.27;1.40;;;1.30;99.90;;;;;;4993635;28;20188;-69
2022/01/06 03:23:39;;;;;;;3.50;1.10;;;1.40;99.90;;;;;;4987576;28;20436;-69
2022/01/06 03:26:04;;;;;;;2.17;1.10;;;1.30;99.90;;;;;;4985055;28;20188;-69
2022/01/06 03:28:30;;;;;;;2.60;1.30;;;1.30;99.90;;;;;;4989432;28;21081;-69
2022/01/06 03:30:56;;;;;;;3.40;1.40;;;1.40;99.90;;;;;;4987919;28;20199;-69
2022/01/06 03:33:22;;;;;;;4.43;1.73;;;1.30;99.90;;;;;;4989340;28;20554;-69
2022/01/06 03:35:47;;;;;;;2.77;1.67;;;1.30;99.90;;;;;;4989818;28;20206;-69
2022/01/06 03:38:13;;;;;;;4.53;1.27;;;1.30;99.90;;;;;;4989749;28;20206;-69
2022/01/06 03:40:40;;;;;;;2.50;1.33;;;1.40;99.90;;;;;;4991271;28;20196;-69
2022/01/06 03:43:06;;;;;;;1.90;0.93;;;1.40;99.90;;;;;;4984175;28;20200;-69
2022/01/06 03:45:33;;;;;;;2.77;1.60;;;1.40;99.90;;;;;;4984032;28;20450;-69
2022/01/06 03:47:59;;;;;;;2.90;1.37;;;1.40;99.90;;;;;;4988257;28;20553;-69
2022/01/06 03:50:25;;;;;;;6.23;1.53;;;1.40;99.90;;;;;;4987734;28;20578;-69
2022/01/06 03:52:51;;;;;;;1.50;0.80;;;1.40;99.90;;;;;;4986797;28;20443;-69
2022/01/06 03:55:19;;;;;;;3.97;1.70;;;1.40;99.90;;;;;;4991599;28;20477;-69
2022/01/06 03:57:45;;;;;;;3.77;1.27;;;1.40;99.90;;;;;;4989508;28;20521;-69
2022/01/06 04:00:15;;;;;;;3.80;1.07;;;1.40;99.90;;;;;;4992206;28;20439;-69
2022/01/06 04:02:41;;;;;;;2.50;1.23;;;1.30;99.90;;;;;;4990044;28;20438;-69
2022/01/06 04:05:08;;;;;;;2.63;1.10;;;1.30;99.90;;;;;;4993260;28;20921;-69
2022/01/06 04:07:34;;;;;;;4.60;1.83;;;1.20;99.90;;;;;;4984875;28;20895;-69
2022/01/06 04:10:00;;;;;;;6.90;1.83;;;1.30;99.90;;;;;;4988972;28;20558;-69
2022/01/06 04:12:25;;;;;;;5.00;1.40;;;1.30;99.90;;;;;;4994017;28;20912;-69
2022/01/06 04:14:51;;;;;;;5.23;1.80;;;1.30;99.90;;;;;;4987210;28;20657;-69
2022/01/06 04:17:17;;;;;;;5.37;1.77;;;1.30;99.90;;;;;;4988300;28;20242;-69
2022/01/06 04:19:43;;;;;;;2.53;1.40;;;1.30;99.90;;;;;;4994991;28;20676;-69
2022/01/06 04:22:08;;;;;;;2.90;1.60;;;1.30;99.90;;;;;;4991195;28;20527;-69
2022/01/06 04:24:34;;;;;;;3.63;1.90;;;1.30;99.90;;;;;;4991442;28;20282;-69
2022/01/06 04:27:01;;;;;;;4.93;2.07;;;1.30;99.90;;;;;;4987355;28;20290;-69
2022/01/06 04:29:26;;;;;;;3.80;1.77;;;1.30;99.90;;;;;;4986475;28;20723;-69
2022/01/06 04:31:52;;;;;;;4.23;1.73;;;1.20;99.90;;;;;;4987245;28;20461;-70
2022/01/06 04:34:18;;;;;;;3.60;1.53;;;1.30;99.90;;;;;;4989367;28;20203;-69
2022/01/06 04:36:49;;;;;;;2.73;1.43;;;1.30;99.90;;;;;;4989914;28;20245;-69
2022/01/06 04:39:15;;;;;;;3.60;1.50;;;1.30;99.90;;;;;;4996916;28;20242;-69
2022/01/06 04:41:41;;;;;;;6.37;2.27;;;1.20;99.90;;;;;;4989990;28;20427;-69
2022/01/06 04:44:07;;;;;;;2.97;1.50;;;1.30;99.90;;;;;;4992099;28;20204;-69
2022/01/06 04:46:32;;;;;;;6.20;1.80;;;1.20;99.90;;;;;;4992849;28;20400;-69
2022/01/06 04:48:58;;;;;;;4.17;1.80;;;1.30;99.90;;;;;;4975364;28;20196;-69
2022/01/06 04:51:24;;;;;;;6.13;2.00;;;1.30;99.90;;;;;;4995731;28;20230;-69
2022/01/06 04:53:49;;;;;;;16.43;1.50;;;1.30;99.90;;;;;;5000796;28;20211;-69
2022/01/06 04:56:15;;;;;;;3.83;2.17;;;1.30;99.90;;;;;;4991911;28;20192;-69
2022/01/06 04:58:41;;;;;;;3.30;1.50;;;1.30;99.90;;;;;;4996277;28;20691;-69
2022/01/06 05:01:06;;;;;;;3.73;1.40;;;1.30;99.90;;;;;;4996676;28;20628;-69
2022/01/06 05:03:32;;;;;;;2.77;1.10;;;1.40;99.90;;;;;;4990648;28;20722;-69
2022/01/06 05:05:57;;;;;;;6.10;2.63;;;1.40;99.90;;;;;;4996874;28;20188;-69
2022/01/06 05:08:23;;;;;;;4.00;1.97;;;1.40;99.90;;;;;;4994795;28;20198;-69
2022/01/06 05:10:49;;;;;;;1.93;1.20;;;1.40;99.90;;;;;;4992914;28;20188;-69
2022/01/06 05:13:15;;;;;;;4.03;1.50;;;1.40;99.90;;;;;;4988304;28;20773;-69
2022/01/06 05:15:40;;;;;;;5.63;1.30;;;1.30;99.90;;;;;;4996113;28;20247;-69
2022/01/06 05:18:06;;;;;;;3.70;1.27;;;1.30;99.90;;;;;;4992056;28;20469;-69
2022/01/06 05:20:31;;;;;;;2.80;1.83;;;1.30;99.90;;;;;;4996256;28;20193;-69
2022/01/06 05:22:58;;;;;;;2.13;1.40;;;1.30;99.90;;;;;;4979752;28;20214;-69
2022/01/06 05:25:29;;;;;;;2.43;1.60;;;1.30;99.90;;;;;;4990551;28;20209;-69
2022/01/06 05:27:55;;;;;;;3.63;1.43;;;1.20;99.90;;;;;;4987025;28;20454;-69
2022/01/06 05:30:21;;;;;;;3.73;1.90;;;1.20;99.90;;;;;;4996911;28;20438;-69
2022/01/06 05:32:47;;;;;;;2.57;1.47;;;1.20;99.90;;;;;;4987238;28;20187;-69
2022/01/06 05:35:13;;;;;;;3.33;1.33;;;1.20;99.90;;;;;;4992690;28;21196;-69
2022/01/06 05:37:38;;;;;;;2.90;1.37;;;1.20;99.90;;;;;;4993976;28;20203;-69
2022/01/06 05:40:05;;;;;;;1.87;0.90;;;1.20;99.90;;;;;;4996655;28;20242;-69
2022/01/06 05:42:31;;;;;;;2.90;1.50;;;1.20;99.90;;;;;;4991788;28;20535;-69
2022/01/06 05:44:56;;;;;;;3.60;1.67;;;1.20;99.90;;;;;;4983717;28;20431;-69
2022/01/06 05:47:22;;;;;;;2.23;1.00;;;1.20;99.90;;;;;;4988922;28;20198;-69
2022/01/06 05:49:48;;;;;;;4.70;1.83;;;1.10;99.90;;;;;;4991092;28;20195;-69
2022/01/06 05:52:14;;;;;;;3.00;1.47;;;1.10;99.90;;;;;;4986905;28;20196;-69
2022/01/06 05:54:40;;;;;;;2.40;1.13;;;1.20;99.90;;;;;;4991626;28;21020;-69
2022/01/06 05:57:07;;;;;;;1.80;1.07;;;1.20;99.90;;;;;;4995976;28;20530;-69
2022/01/06 05:59:32;;;;;;;9.10;1.90;;;1.10;99.90;;;;;;4998578;28;20220;-69
2022/01/06 06:01:59;;;;;;;3.67;1.43;;;1.10;99.90;;;;;;4985393;28;20474;-69
2022/01/06 06:04:25;;;;;;;3.30;1.37;;;1.00;99.90;;;;;;4989934;28;20585;-69
2022/01/06 06:06:50;;;;;;;2.03;1.27;;;0.90;99.90;;;;;;4986946;28;20927;-69
2022/01/06 06:09:16;;;;;;;3.30;1.20;;;0.80;99.90;;;;;;4976668;28;20524;-69
2022/01/06 06:11:42;;;;;;;4.47;2.03;;;0.80;99.90;;;;;;4988148;28;20644;-69
2022/01/06 06:14:08;;;;;;;2.80;1.13;;;0.80;99.90;;;;;;4988349;28;20495;-69
2022/01/06 06:16:33;;;;;;;8.17;2.00;;;0.70;99.90;;;;;;4995545;28;20266;-69
2022/01/06 06:18:59;;;;;;;3.10;2.23;;;0.70;99.90;;;;;;4990698;28;20656;-69
2022/01/06 06:21:25;;;;;;;3.77;1.93;;;0.70;99.90;;;;;;4973294;28;20200;-69
2022/01/06 06:23:51;;;;;;;4.83;2.43;;;0.80;99.90;;;;;;4988775;28;20194;-69
2022/01/06 06:26:17;;;;;;;2.77;1.80;;;0.80;99.90;;;;;;4979076;28;20434;-69
2022/01/06 06:28:43;;;;;;;2.73;2.03;;;0.70;99.90;;;;;;4984128;28;20282;-69
2022/01/06 06:31:09;;;;;;;4.80;2.30;;;0.80;99.90;;;;;;4996731;28;20361;-69
2022/01/06 06:33:35;;;;;;;5.70;2.40;;;0.80;99.90;;;;;;4992162;28;20653;-69
2022/01/06 06:36:00;;;;;;;6.27;2.27;;;0.90;99.90;;;;;;4990896;28;20188;-69
2022/01/06 06:38:26;;;;;;;3.27;1.90;;;0.90;99.90;;;;;;4995709;28;20345;-69
2022/01/06 06:40:52;;;;;;;4.20;1.57;;;0.90;99.90;;;;;;4996248;28;20663;-69
2022/01/06 06:43:17;;;;;;;6.50;1.87;;;0.90;99.90;;;;;;4983408;28;20196;-69
2022/01/06 06:45:44;;;;;;;12.60;2.07;;;0.90;99.90;;;;;;4980604;28;20207;-69
2022/01/06 06:48:11;;;;;;;2.90;1.83;;;0.90;99.90;;;;;;4994318;28;20203;-69
2022/01/06 06:50:37;;;;;;;8.60;2.00;;;0.90;99.90;;;;;;4989686;28;20531;-69
2022/01/06 06:53:03;;;;;;;7.43;2.10;;;0.90;99.90;;;;;;4989347;28;20533;-69
2022/01/06 06:55:29;;;;;;;4.23;1.97;;;0.90;99.90;;;;;;4994358;28;20811;-69
2022/01/06 06:57:55;;;;;;;5.83;2.60;;;0.90;99.90;;;;;;4992175;28;20438;-69
2022/01/06 07:00:21;;;;;;;3.73;2.10;;;0.90;99.90;;;;;;4993976;28;20454;-69
2022/01/06 07:02:46;;;;;;;3.57;2.10;;;0.90;99.90;;;;;;4978163;28;20687;-69
2022/01/06 07:05:12;;;;;;;3.43;1.70;;;1.00;99.90;;;;;;4987767;28;20614;-69
2022/01/06 07:07:38;;;;;;;7.13;2.20;;;1.00;99.90;;;;;;4982517;28;20637;-69
2022/01/06 07:10:05;;;;;;;4.93;2.37;;;1.00;99.90;;;;;;4994639;28;20265;-69
2022/01/06 07:12:31;;;;;;;6.23;3.17;;;1.10;99.90;;;;;;4987343;28;20597;-69
2022/01/06 07:15:02;;;;;;;3.47;1.63;;;1.10;99.90;;;;;;4995682;28;20849;-69
2022/01/06 07:17:28;;;;;;;2.73;1.77;;;1.10;99.90;;;;;;4992354;28;20439;-69
2022/01/06 07:19:53;;;;;;;5.00;2.30;;;1.10;99.90;;;;;;4997460;28;20491;-69
2022/01/06 07:22:19;;;;;;;6.83;3.27;;;1.10;99.90;;;;;;4994094;28;20275;-69
2022/01/06 07:24:44;;;;;;;8.07;4.13;;;1.10;99.90;;;;;;4984147;28;20188;-69
2022/01/06 07:27:10;;;;;;;5.13;3.00;;;1.10;99.90;;;;;;4976266;28;20885;-69
2022/01/06 07:29:36;;;;;;;4.83;2.30;;;1.20;99.90;;;;;;4985428;28;20625;-69
2022/01/06 07:32:02;;;;;;;12.00;3.20;;;1.20;99.90;;;;;;4986938;28;20657;-69
2022/01/06 07:34:27;;;;;;;5.00;2.00;;;1.20;99.90;;;;;;4990755;28;20219;-69
2022/01/06 07:36:53;;;;;;;5.03;2.70;;;1.20;99.90;;;;;;4981582;28;20549;-69
2022/01/06 07:39:19;;;;;;;5.30;2.23;;;1.20;99.90;;;;;;4992786;28;20187;-69
2022/01/06 07:41:44;;;;;;;8.53;2.40;;;1.20;99.90;;;;;;4991688;28;20184;-69
2022/01/06 07:44:10;;;;;;;3.10;1.70;;;1.30;99.90;;;;;;4988566;28;20199;-69
2022/01/06 07:46:37;;;;;;;3.63;1.33;;;1.30;99.90;;;;;;4988828;28;20229;-69
2022/01/06 07:49:03;;;;;;;8.30;2.10;;;1.40;99.90;;;;;;4990278;28;20838;-69
2022/01/06 07:51:30;;;;;;;10.43;1.47;;;1.40;99.90;;;;;;4989812;28;20454;-69
2022/01/06 07:53:58;;;;;;;3.90;2.07;;;1.40;99.90;;;;;;4988990;28;20466;-69
2022/01/06 07:56:24;;;;;;;2.20;1.43;;;1.40;99.90;;;;;;4993866;28;20441;-69
2022/01/06 07:58:50;;;;;;;13.50;6.33;;;1.40;99.90;;;;;;4993902;28;20439;-69
2022/01/06 08:01:17;;;;;;;10.60;4.00;;;1.40;99.90;;;;;;4995903;28;20454;-69
2022/01/06 08:03:43;;;;;;;6.50;2.00;;;1.40;99.90;;;;;;4993713;28;20192;-69
2022/01/06 08:06:10;;;;;;;8.87;2.40;;;1.40;99.90;;;;;;4992864;28;20538;-69
2022/01/06 08:08:36;;;;;;;4.60;2.53;;;1.50;99.90;;;;;;4992747;28;20439;-69
2022/01/06 08:11:02;;;;;;;7.53;2.90;;;1.50;99.90;;;;;;5000900;28;20893;-69
2022/01/06 08:13:28;;;;;;;4.13;1.93;;;1.60;99.90;;;;;;4997428;28;20450;-69
2022/01/06 08:15:54;;;;;;;6.17;2.90;;;1.70;99.90;;;;;;4992913;28;20473;-69
2022/01/06 08:18:19;;;;;;;4.43;2.30;;;1.70;99.90;;;;;;4997796;28;20187;-69
2022/01/06 08:20:45;;;;;;;7.20;1.60;;;1.70;99.90;;;;;;4989887;28;20195;-69
2022/01/06 08:23:11;;;;;;;3.03;1.63;;;1.60;99.90;;;;;;4987246;28;20301;-69
2022/01/06 08:25:36;;;;;;;2.70;1.50;;;1.70;99.90;;;;;;4987828;28;20243;-69
2022/01/06 08:28:03;;;;;;;3.00;2.00;;;1.60;99.90;;;;;;4997789;28;20286;-69
2022/01/06 08:30:29;;;;;;;2.53;1.43;;;1.50;99.90;;;;;;4984781;28;20188;-69
2022/01/06 08:32:55;;;;;;;4.90;2.00;;;1.40;99.90;;;;;;4998576;28;20492;-69
2022/01/06 08:35:22;;;;;;;3.57;1.40;;;1.40;99.90;;;;;;4995746;28;20216;-69
2022/01/06 08:37:48;;;;;;;4.17;1.83;;;1.40;99.90;;;;;;4996728;28;20434;-69
2022/01/06 08:40:14;;;;;;;5.10;2.37;;;1.50;99.90;;;;;;4997534;28;20446;-69
2022/01/06 08:42:40;;;;;;;2.50;1.70;;;1.60;99.90;;;;;;4994096;28;20226;-69
2022/01/06 08:45:06;;;;;;;4.23;2.60;;;1.60;99.90;;;;;;4995305;28;20580;-69
2022/01/06 08:47:32;;;;;;;8.90;2.90;;;1.80;99.90;;;;;;5000434;28;20441;-69
2022/01/06 08:49:58;;;;;;;7.87;2.63;;;2.00;99.90;;;;;;4991687;28;20452;-69
2022/01/06 08:52:24;;;;;;;5.80;2.40;;;2.20;99.90;;;;;;4981302;28;20824;-69
2022/01/06 08:54:50;;;;;;;8.00;3.57;;;2.50;99.90;;;;;;4984231;28;20580;-69
2022/01/06 08:57:16;;;;;;;9.55;3.28;;;2.70;99.90;;;;;;4989998;28;20446;-69
2022/01/06 08:59:41;;;;;;;16.53;3.70;;;2.60;99.90;;;;;;4994175;28;20192;-69
2022/01/06 09:02:08;;;;;;;2.43;1.53;;;2.60;99.90;;;;;;4992583;28;20195;-69
2022/01/06 09:04:33;;;;;;;3.00;2.03;;;2.50;99.90;;;;;;4987061;28;20392;-69
2022/01/06 09:06:59;;;;;;;7.17;2.27;;;2.30;99.90;;;;;;4982284;28;20447;-69
2022/01/06 09:09:25;;;;;;;3.50;1.90;;;2.30;99.90;;;;;;4987056;28;20235;-70
2022/01/06 09:11:51;;;;;;;4.73;3.00;;;2.30;99.90;;;;;;4990340;28;20203;-69
2022/01/06 09:14:17;;;;;;;10.53;3.73;;;2.30;99.90;;;;;;4989735;28;20467;-69
2022/01/06 09:16:43;;;;;;;16.63;5.23;;;2.40;99.90;;;;;;4990885;28;20190;-69
2022/01/06 09:19:09;;;;;;;10.03;3.20;;;2.50;99.90;;;;;;4999880;28;20439;-69
2022/01/06 09:21:35;;;;;;;7.70;3.60;;;2.60;99.90;;;;;;4991509;28;20190;-69
2022/01/06 09:24:06;;;;;;;5.13;2.73;;;2.70;99.90;;;;;;4986656;28;21318;-69
2022/01/06 09:26:35;;;;;;;4.00;2.27;;;2.80;99.90;;;;;;4981922;28;20772;-69
2022/01/06 09:29:07;;;;;;;20.57;4.63;;;2.90;99.90;;;;;;4980460;28;20443;-69
2022/01/06 09:31:34;;;;;;;8.60;2.37;;;2.90;99.90;;;;;;4980855;28;20450;-69
2022/01/06 09:34:01;;;;;;;6.40;2.67;;;3.10;99.90;;;;;;4982782;28;20582;-69
2022/01/06 09:36:27;;;;;;;2.90;1.83;;;3.20;99.90;;;;;;4982909;28;20443;-69
2022/01/06 09:38:55;;;;;;;5.80;3.10;;;3.20;99.90;;;;;;4987456;28;20468;-69
2022/01/06 09:41:22;;;;;;;3.67;2.20;;;3.10;99.90;;;;;;4985696;28;21087;-69
2022/01/06 09:44:00;;;;;;;10.03;2.37;;;3.10;99.90;;;;;;4986134;28;20439;-70
2022/01/06 09:46:27;;;;;;;9.20;1.83;;;3.00;99.90;;;;;;4984475;28;20433;-69
2022/01/06 09:48:59;;;;;;;7.37;3.83;;;2.90;99.90;;;;;;4991253;28;20442;-69
2022/01/06 09:51:26;;;;;;;8.50;4.50;;;2.80;99.90;;;;;;4990607;28;20428;-69
2022/01/06 09:53:54;;;;;;;10.33;5.00;;;2.70;99.90;;;;;;4988921;28;20601;-69
2022/01/06 09:56:20;;;;;;;12.20;3.93;;;2.80;99.90;;;;;;4983179;28;20449;-69
2022/01/06 09:58:46;;;;;;;9.43;4.07;;;2.80;99.90;;;;;;5000108;28;20430;-69
2022/01/06 10:01:12;;;;;;;21.40;6.17;;;2.80;99.90;;;;;;4996813;28;20451;-69
2022/01/06 10:03:41;;;;;;;9.30;4.30;;;2.90;99.90;;;;;;4991129;28;21029;-69
2022/01/06 10:06:25;;;;;;;4.90;2.00;;;2.90;99.90;;;;;;4990490;28;20611;-69
2022/01/06 10:08:59;;;;;;;3.50;1.57;;;3.10;99.90;;;;;;4988500;28;20537;-69
2022/01/06 10:11:35;;;;;;;2.80;1.73;;;3.10;99.90;;;;;;4984576;28;20437;-69
2022/01/06 10:14:10;;;;;;;6.23;2.63;;;3.10;99.90;;;;;;4988259;28;20500;-70
2022/01/06 10:16:39;;;;;;;5.33;2.17;;;3.10;99.90;;;;;;4979767;28;20426;-68
2022/01/06 10:19:06;;;;;;;5.90;2.80;;;3.00;99.90;;;;;;4993068;28;20469;-67
2022/01/06 10:21:47;;;;;;;4.03;1.83;;;3.00;99.90;;;;;;4980925;28;20427;-68
2022/01/06 10:24:12;;;;;;;9.00;1.97;;;3.00;99.90;;;;;;4992925;28;20438;-69
2022/01/06 10:27:01;;;;;;;9.70;2.40;;;2.90;99.90;;;;;;4990352;28;20539;-68
2022/01/06 10:29:36;;;;;;;6.80;1.73;;;3.10;99.90;;;;;;4986833;28;20192;-68
2022/01/06 10:32:03;;;;;;;7.30;1.70;;;3.40;99.90;;;;;;4989827;28;21070;-68
2022/01/06 10:34:30;;;;;;;7.83;2.73;;;3.70;99.90;;;;;;4984410;28;20754;-68
2022/01/06 10:36:56;;;;;;;2.67;1.40;;;4.00;99.90;;;;;;4986911;28;20432;-68
2022/01/06 10:39:22;;;;;;;4.07;1.00;;;4.30;99.90;;;;;;4992227;28;20419;-68
2022/01/06 10:41:47;;;;;;;2.43;1.20;;;4.50;99.90;;;;;;4991991;28;20192;-69
2022/01/06 10:44:13;;;;;;;4.40;1.40;;;4.50;99.90;;;;;;4987978;28;20253;-68
2022/01/06 10:46:44;;;;;;;3.20;1.63;;;4.80;99.90;;;;;;4980152;28;20199;-68
2022/01/06 10:49:16;;;;;;;8.30;2.00;;;5.00;99.90;;;;;;4989355;28;20447;-68
2022/01/06 10:51:48;;;;;;;7.67;2.20;;;5.30;99.90;;;;;;4988591;28;20451;-68
2022/01/06 10:54:21;;;;;;;4.90;2.70;;;5.10;99.90;;;;;;4989554;28;20465;-68
2022/01/06 10:57:07;;;;;;;3.10;1.60;;;4.90;99.90;;;;;;4987659;28;20446;-69
2022/01/06 10:59:34;;;;;;;7.10;2.07;;;4.60;99.90;;;;;;4985174;28;20438;-68
2022/01/06 11:02:01;;;;;;;4.40;1.47;;;4.30;99.90;;;;;;4989004;28;20485;-68
2022/01/06 11:04:28;;;;;;;11.53;2.10;;;4.10;99.90;;;;;;4996926;28;20453;-68
2022/01/06 11:06:54;;;;;;;8.40;2.40;;;3.90;99.90;;;;;;4992736;28;20442;-68
2022/01/06 11:09:20;;;;;;;9.67;2.30;;;3.80;99.90;;;;;;4991325;28;20488;-69
2022/01/06 11:14:25;;;;;;;1.50;0.90;;;3.50;99.90;;;;;;4988241;28;20974;-69
2022/01/06 11:16:50;;;;;;;13.90;2.00;;;3.40;99.90;;;;;;4990271;28;20480;-68
2022/01/06 11:19:16;;;;;;;3.93;1.70;;;3.30;99.90;;;;;;4988021;28;20443;-66
2022/01/06 11:21:46;;;;;;;5.83;1.40;;;3.30;99.90;;;;;;4977878;28;20594;-68
2022/01/06 11:24:22;;;;;;;11.57;2.80;;;3.20;99.90;;;;;;4981629;28;20184;-68
2022/01/06 11:27:03;;;;;;;14.60;4.70;;;3.20;99.90;;;;;;4986879;28;20498;-69
2022/01/06 11:29:43;;;;;;;3.83;1.60;;;3.10;99.90;;;;;;4986657;28;20578;-68
2022/01/06 11:32:19;;;;;;;14.50;1.47;;;3.10;99.90;;;;;;4987981;28;20442;-68
2022/01/06 11:34:45;;;;;;;3.37;1.70;;;3.10;99.90;;;;;;4976171;28;20463;-68
2022/01/06 11:37:13;;;;;;;7.20;1.67;;;3.00;99.90;;;;;;4988990;28;20445;-68
2022/01/06 11:39:39;;;;;;;4.23;1.70;;;3.00;99.90;;;;;;4992039;28;20271;-68
2022/01/06 11:42:17;;;;;;;3.70;1.20;;;3.00;99.90;;;;;;4980498;28;20435;-68
2022/01/06 11:44:54;;;;;;;7.20;1.10;;;3.10;99.90;;;;;;4989374;28;20440;-68
2022/01/06 11:47:35;;;;;;;9.07;2.27;;;3.10;99.90;;;;;;4983311;28;20435;-68
2022/01/06 11:50:13;;;;;;;5.13;2.00;;;3.10;99.90;;;;;;4976510;28;20431;-68
2022/01/06 11:52:57;;;;;;;4.93;1.60;;;3.10;99.90;;;;;;4980345;28;20630;-68
2022/01/06 11:55:28;;;;;;;5.53;2.03;;;3.20;99.90;;;;;;4986490;28;20475;-68
2022/01/06 11:57:54;;;;;;;10.20;1.87;;;3.20;99.90;;;;;;4988209;28;20518;-68
2022/01/06 12:00:24;;;;;;;36.47;10.20;;;3.30;99.90;;;;;;4983505;28;20526;-70
2022/01/06 12:03:03;;;;;;;11.57;2.33;;;3.20;99.90;;;;;;4984918;28;20210;-68
2022/01/06 12:05:52;;;;;;;7.20;3.60;;;3.20;99.90;;;;;;4989280;28;20434;-68
2022/01/06 12:08:36;;;;;;;35.27;13.30;;;3.20;99.90;;;;;;4990044;28;20987;-68
2022/01/06 12:11:02;;;;;;;57.77;17.83;;;3.20;99.90;;;;;;4991126;28;20428;-68
2022/01/06 12:13:28;;;;;;;7.30;3.07;;;3.10;99.90;;;;;;4980845;28;20435;-68
2022/01/06 12:15:56;;;;;;;7.10;3.23;;;3.00;99.90;;;;;;4989642;28;20505;-68
2022/01/06 12:18:27;;;;;;;29.33;8.67;;;2.90;99.90;;;;;;4993840;28;20175;-68
2022/01/06 12:20:57;;;;;;;10.37;2.73;;;2.80;99.90;;;;;;4990082;28;21092;-68
2022/01/06 12:23:24;;;;;;;6.90;3.43;;;2.70;99.90;;;;;;4987987;28;20419;-68
2022/01/06 12:26:04;;;;;;;7.40;1.70;;;2.70;99.90;;;;;;4998267;28;20422;-68
2022/01/06 12:28:32;;;;;;;6.20;2.70;;;2.60;99.90;;;;;;4993603;28;20502;-67
2022/01/06 12:31:03;;;;;;;17.43;4.10;;;2.70;99.90;;;;;;4991767;28;20924;-67
2022/01/06 12:33:31;;;;;;;8.40;2.57;;;2.60;99.90;;;;;;4995884;28;20450;-68
2022/01/06 12:35:57;;;;;;;9.03;4.00;;;2.50;99.90;;;;;;5000433;28;20470;-68
2022/01/06 12:38:29;;;;;;;18.53;4.00;;;2.60;99.90;;;;;;4990806;28;20778;-68
2022/01/06 12:40:55;;;;;;;14.47;4.43;;;2.50;99.90;;;;;;5001347;28;20426;-68
2022/01/06 12:43:26;;;;;;;20.03;6.00;;;2.50;99.90;;;;;;4998877;28;20513;-68
2022/01/06 12:46:13;;;;;;;20.10;5.20;;;2.60;99.90;;;;;;4994954;28;20457;-68
2022/01/06 12:48:42;;;;;;;12.77;2.80;;;2.50;99.90;;;;;;4979212;28;20485;-69
2022/01/06 12:51:10;;;;;;;13.10;3.47;;;2.50;99.90;;;;;;4991315;28;20988;-69
2022/01/06 12:53:47;;;;;;;6.43;2.80;;;2.60;99.90;;;;;;4993574;28;20431;-69
2022/01/06 12:56:27;;;;;;;26.50;8.63;;;2.60;99.90;;;;;;4991934;28;20418;-68
2022/01/06 12:58:56;;;;;;;10.07;2.87;;;2.60;99.90;;;;;;4992668;28;20419;-69
2022/01/06 13:01:22;;;;;;;4.60;1.30;;;2.60;99.90;;;;;;4983775;28;20499;-69
2022/01/06 13:03:53;;;;;;;2.80;1.57;;;2.60;99.90;;;;;;4992338;28;20434;-69
2022/01/06 13:06:21;;;;;;;4.07;1.33;;;2.70;99.90;;;;;;4984956;28;20429;-68